Time;durP1;ratioP1;P1;durP2;ratioP2;P2;SDS_P1;SDS_P2;PMS_P1;PMS_P2;Temp;Humidity;BMP_temperature;BMP_pressure;BME280_temperature;BME280_humidity;BME280_pressure;Samples;Min_cycle;Max_cycle;Signal;HPM_P1;HPM_P2
2021/03/03 00:03:47;;;;;;;29.60;19.90;;;6.90;91.90;;;;;;6185926;23;20028;-90
2021/03/03 00:06:31;;;;;;;29.40;18.90;;;6.90;91.80;;;;;;6186138;23;20040;-90
2021/03/03 00:09:11;;;;;;;27.30;18.67;;;6.80;91.90;;;;;;6185484;23;20021;-90
2021/03/03 00:11:45;;;;;;;27.52;18.38;;;6.80;92.00;;;;;;6186032;23;20021;-90
2021/03/03 00:14:42;;;;;;;28.77;19.25;;;6.80;92.00;;;;;;6186373;23;20024;-89
2021/03/03 00:17:48;;;;;;;28.77;19.83;;;6.70;91.90;;;;;;6185843;23;20017;-92
2021/03/03 00:20:47;;;;;;;28.25;19.13;;;6.70;91.90;;;;;;6174077;23;20021;-91
2021/03/03 00:23:48;;;;;;;28.38;18.90;;;6.60;91.90;;;;;;6184882;23;20136;-91
2021/03/03 00:26:14;;;;;;;27.45;18.80;;;6.50;91.90;;;;;;6185909;23;20040;-90
2021/03/03 00:28:46;;;;;;;28.48;19.63;;;6.50;91.90;;;;;;6186344;23;20391;-89
2021/03/03 00:31:14;;;;;;;28.48;18.60;;;6.50;92.10;;;;;;6185576;23;20074;-92
2021/03/03 00:33:43;;;;;;;27.85;18.55;;;6.50;92.00;;;;;;6186469;23;20017;-91
2021/03/03 00:36:50;;;;;;;30.27;20.30;;;6.40;92.00;;;;;;6185897;23;20024;-91
2021/03/03 00:39:17;;;;;;;31.05;19.48;;;6.40;92.10;;;;;;6186670;23;20017;-90
2021/03/03 00:41:48;;;;;;;28.98;18.73;;;6.30;92.00;;;;;;6188343;23;20096;-90
2021/03/03 00:44:16;;;;;;;31.75;19.42;;;6.30;92.10;;;;;;6187827;23;20013;-92
2021/03/03 00:46:57;;;;;;;28.35;18.90;;;6.30;92.10;;;;;;6188401;23;20036;-91
2021/03/03 00:49:41;;;;;;;26.35;18.10;;;6.30;92.20;;;;;;6188266;23;20087;-91
2021/03/03 00:52:10;;;;;;;;;;;6.20;92.20;;;;;;6187498;23;20548;-88
2021/03/03 00:54:41;;;;;;;28.27;19.48;;;6.20;91.70;;;;;;6188100;23;19916;-89
2021/03/03 00:57:47;;;;;;;28.20;18.38;;;6.20;92.10;;;;;;6188129;23;20411;-92
2021/03/03 01:00:47;;;;;;;24.48;16.48;;;6.10;92.10;;;;;;6187259;23;20084;-90
2021/03/03 01:03:40;;;;;;;26.63;18.05;;;6.10;92.00;;;;;;6197489;22;20072;-91
2021/03/03 01:06:09;;;;;;;25.98;17.55;;;6.10;92.00;;;;;;6247288;23;20022;-90
2021/03/03 01:08:42;;;;;;;24.95;17.17;;;6.00;91.80;;;;;;6248372;23;20083;-90
2021/03/03 01:11:11;;;;;;;24.70;16.50;;;6.00;92.00;;;;;;6248229;23;20365;-91
2021/03/03 01:13:43;;;;;;;25.02;16.77;;;5.90;91.90;;;;;;6247428;23;20020;-91
2021/03/03 01:16:54;;;;;;;27.42;17.90;;;5.90;91.80;;;;;;6248441;23;20062;-92
2021/03/03 01:19:54;;;;;;;25.67;16.92;;;5.80;91.80;;;;;;6246900;23;20441;-91
2021/03/03 01:22:48;;;;;;;25.65;16.90;;;5.70;91.70;;;;;;6248184;23;20046;-91
2021/03/03 01:25:41;;;;;;;23.98;16.45;;;5.70;91.70;;;;;;6248256;23;20022;-92
2021/03/03 01:28:13;;;;;;;23.88;16.15;;;5.70;91.70;;;;;;6247336;23;20444;-91
2021/03/03 01:30:46;;;;;;;24.42;17.05;;;5.70;91.60;;;;;;6248004;23;20090;-91
2021/03/03 01:33:34;;;;;;;23.75;16.77;;;5.60;91.50;;;;;;6248496;23;20020;-90
2021/03/03 01:36:02;;;;;;;31.73;19.58;;;5.60;91.60;;;;;;6245742;22;20012;-90
2021/03/03 01:39:44;;;;;;;24.98;16.40;;;5.50;91.60;;;;;;6243672;23;20016;-91
2021/03/03 01:42:48;;;;;;;25.70;16.85;;;5.50;91.50;;;;;;6246881;23;20020;-91
2021/03/03 01:45:43;;;;;;;23.77;16.08;;;5.40;91.50;;;;;;6243931;22;20024;-91
2021/03/03 01:48:47;;;;;;;29.38;18.67;;;5.40;91.60;;;;;;6220488;23;20027;-92
2021/03/03 01:51:16;;;;;;;28.65;19.10;;;5.40;91.80;;;;;;6247525;23;20154;-92
2021/03/03 01:53:53;;;;;;;28.00;18.50;;;5.40;92.00;;;;;;6247053;22;20345;-91
2021/03/03 01:56:19;;;;;;;27.02;18.17;;;5.40;92.20;;;;;;6246708;23;20016;-91
2021/03/03 01:58:45;;;;;;;26.80;17.65;;;5.40;92.10;;;;;;6247955;23;20047;-93
2021/03/03 02:01:15;;;;;;;27.67;18.60;;;5.40;92.10;;;;;;6245105;22;20024;-91
2021/03/03 02:09:52;;;;;;;25.60;16.40;;;5.30;92.20;;;;;;6236242;22;20020;-91
2021/03/03 02:12:47;;;;;;;23.45;16.15;;;5.30;92.20;;;;;;6246641;23;20079;-91
2021/03/03 02:15:15;;;;;;;25.35;16.92;;;5.30;92.00;;;;;;6247943;23;20022;-91
2021/03/03 02:30:55;;;;;;;26.50;16.42;;;5.10;91.90;;;;;;6246893;23;20138;-91
2021/03/03 02:33:41;;;;;;;26.55;16.80;;;5.10;92.00;;;;;;6228956;22;20036;-91
2021/03/03 02:43:41;;;;;;;22.73;14.93;;;5.00;91.90;;;;;;6243979;22;20028;-90
2021/03/03 02:46:52;;;;;;;24.75;16.05;;;5.00;91.80;;;;;;6247044;23;20016;-92
2021/03/03 02:49:50;;;;;;;23.77;15.82;;;4.90;91.70;;;;;;6247001;23;20019;-92
2021/03/03 02:52:47;;;;;;;24.58;16.02;;;4.90;91.70;;;;;;6276770;22;20340;-91
2021/03/03 02:55:44;;;;;;;21.00;15.15;;;4.90;91.70;;;;;;6247345;22;20031;-91
2021/03/03 02:58:10;;;;;;;24.38;16.20;;;4.80;91.40;;;;;;6246577;23;20345;-91
2021/03/03 03:04:14;;;;;;;23.75;15.88;;;4.80;91.70;;;;;;6246747;23;20020;-92
2021/03/03 03:06:47;;;;;;;23.25;16.25;;;4.70;91.80;;;;;;6246875;23;20348;-91
2021/03/03 03:09:45;;;;;;;26.20;16.70;;;4.70;91.90;;;;;;6246701;23;20460;-91
2021/03/03 03:12:36;;;;;;;24.65;16.67;;;4.70;91.90;;;;;;6245331;23;20022;-91
2021/03/03 03:15:15;;;;;;;26.35;16.95;;;4.60;92.00;;;;;;6247745;23;20016;-90
2021/03/03 03:17:50;;;;;;;25.80;16.75;;;4.70;92.10;;;;;;6247340;23;20020;-93
2021/03/03 03:23:55;;;;;;;27.15;17.42;;;4.60;92.10;;;;;;6242513;22;20449;-92
2021/03/03 03:26:23;;;;;;;28.45;17.35;;;4.60;92.20;;;;;;6235066;23;20020;-91
2021/03/03 03:29:50;;;;;;;25.60;16.05;;;4.60;92.20;;;;;;6216957;23;20023;-91
2021/03/03 03:32:38;;;;;;;26.30;16.92;;;4.60;92.30;;;;;;6247033;23;20020;-91
2021/03/03 03:35:12;;;;;;;24.30;16.13;;;4.60;92.30;;;;;;6215378;23;20035;-92
2021/03/03 03:45:03;;;;;;;21.70;14.23;;;4.50;92.10;;;;;;6181846;23;20027;-89
2021/03/03 03:47:42;;;;;;;21.52;14.80;;;4.50;92.10;;;;;;6126775;23;20034;-91
2021/03/03 03:50:47;;;;;;;24.45;15.60;;;4.50;92.00;;;;;;6127763;23;20133;-90
2021/03/03 03:53:49;;;;;;;22.17;14.65;;;4.50;92.00;;;;;;6126740;23;20466;-91
2021/03/03 03:56:14;;;;;;;19.92;14.68;;;4.50;91.90;;;;;;6126206;23;20029;-90
2021/03/03 03:58:40;;;;;;;24.08;15.35;;;4.40;91.70;;;;;;6185034;22;20028;-89
2021/03/03 04:01:49;;;;;;;24.73;15.27;;;4.40;91.70;;;;;;6214907;23;20021;-91
2021/03/03 04:04:16;;;;;;;20.80;15.25;;;4.40;91.60;;;;;;6216774;23;20092;-90
2021/03/03 04:06:48;;;;;;;22.48;14.50;;;4.40;91.40;;;;;;6216570;22;20028;-90
2021/03/03 04:09:14;;;;;;;22.40;14.57;;;4.40;91.40;;;;;;6216581;23;20063;-91
2021/03/03 04:11:45;;;;;;;22.45;14.90;;;4.40;91.40;;;;;;6216938;23;20380;-91
2021/03/03 04:14:42;;;;;;;25.98;17.60;;;4.30;91.30;;;;;;6217485;23;20023;-92
2021/03/03 04:17:39;;;;;;;21.88;14.65;;;4.30;91.60;;;;;;6218012;23;20441;-91
2021/03/03 04:20:21;;;;;;;24.08;16.17;;;4.30;91.50;;;;;;6218590;23;20020;-91
2021/03/03 04:23:11;;;;;;;23.88;16.92;;;4.30;91.60;;;;;;6218482;23;20079;-92
2021/03/03 04:25:41;;;;;;;20.70;14.65;;;4.30;91.60;;;;;;6217391;23;20453;-91
2021/03/03 04:30:56;;;;;;;24.98;15.80;;;4.20;91.70;;;;;;6210956;22;20487;-91
2021/03/03 04:33:50;;;;;;;23.10;15.82;;;4.20;91.60;;;;;;6219481;23;20020;-90
2021/03/03 04:37:08;;;;;;;23.17;15.65;;;4.20;91.80;;;;;;6218080;23;20016;-92
2021/03/03 04:40:11;;;;;;;22.30;14.88;;;4.20;91.70;;;;;;6215804;23;20095;-93
2021/03/03 04:45:51;;;;;;;27.52;17.25;;;4.20;91.70;;;;;;6209602;23;20027;-93
2021/03/03 04:50:53;;;;;;;25.45;16.95;;;4.20;92.00;;;;;;6211787;23;20028;-91
2021/03/03 04:54:14;;;;;;;25.88;15.63;;;4.20;92.10;;;;;;6156448;23;20032;-91
2021/03/03 04:56:50;;;;;;;22.67;15.82;;;4.10;92.00;;;;;;6156351;23;20084;-92
2021/03/03 05:12:44;;;;;;;22.75;15.70;;;4.10;92.10;;;;;;6215438;23;20024;-91
2021/03/03 05:15:14;;;;;;;24.00;16.00;;;4.10;92.10;;;;;;6218265;23;20017;-92
2021/03/03 05:17:42;;;;;;;23.67;15.95;;;4.10;92.00;;;;;;6217821;23;20023;-91
2021/03/03 05:20:11;;;;;;;24.55;15.93;;;4.10;91.90;;;;;;6217918;23;20027;-92
2021/03/03 05:22:46;;;;;;;24.05;16.55;;;4.00;91.90;;;;;;6217739;23;20020;-92
2021/03/03 05:25:12;;;;;;;27.50;17.95;;;4.00;92.00;;;;;;6217965;23;20434;-91
2021/03/03 05:27:47;;;;;;;25.67;17.10;;;4.00;91.80;;;;;;6217733;23;20017;-92
2021/03/03 05:30:41;;;;;;;22.73;15.95;;;4.00;92.00;;;;;;6218452;23;20186;-93
2021/03/03 05:33:44;;;;;;;22.85;15.27;;;4.00;92.00;;;;;;6217235;23;20471;-93
2021/03/03 05:36:49;;;;;;;21.67;14.85;;;4.00;91.90;;;;;;6218188;23;20013;-91
2021/03/03 05:39:15;;;;;;;23.02;16.25;;;3.90;91.70;;;;;;6217903;23;20028;-92
2021/03/03 05:42:03;;;;;;;23.75;15.98;;;3.90;91.70;;;;;;6217197;23;20025;-90
2021/03/03 05:44:46;;;;;;;23.23;16.00;;;3.90;91.70;;;;;;6217989;23;20021;-92
2021/03/03 05:50:46;;;;;;;25.20;16.75;;;3.80;91.70;;;;;;6212974;23;20357;-89
2021/03/03 05:53:56;;;;;;;22.05;14.55;;;3.80;91.80;;;;;;6217938;23;20027;-91
2021/03/03 06:00:09;;;;;;;25.73;16.02;;;3.80;91.60;;;;;;6217622;23;20066;-91
2021/03/03 06:06:40;;;;;;;24.52;15.65;;;3.80;91.70;;;;;;6217835;23;20016;-91
2021/03/03 06:23:11;;;;;;;31.52;19.95;;;3.80;91.60;;;;;;6213217;23;20020;-89
2021/03/03 06:25:45;;;;;;;26.73;17.67;;;3.80;91.90;;;;;;6217354;23;20445;-94
2021/03/03 06:28:47;;;;;;;27.38;18.80;;;3.80;92.00;;;;;;6217195;23;20017;-91
2021/03/03 06:39:40;;;;;;;25.88;15.40;;;3.80;91.90;;;;;;6081504;23;20021;-91
2021/03/03 06:42:08;;;;;;;28.80;19.23;;;3.70;91.90;;;;;;6196825;23;20398;-91
2021/03/03 06:51:41;;;;;;;27.05;17.75;;;3.70;92.00;;;;;;6156641;23;20028;-93
2021/03/03 06:54:38;;;;;;;22.60;15.38;;;3.70;92.00;;;;;;6181349;22;20009;-92
2021/03/03 07:05:41;;;;;;;24.38;15.85;;;3.70;91.60;;;;;;6156862;23;20045;-93
2021/03/03 07:08:14;;;;;;;26.67;17.50;;;3.70;91.60;;;;;;6128245;23;20020;-92
2021/03/03 07:13:42;;;;;;;25.83;17.00;;;3.60;91.70;;;;;;6216361;23;20437;-94
2021/03/03 07:20:46;;;;;;;27.80;16.20;;;3.70;91.60;;;;;;6216601;23;20031;-95
2021/03/03 07:23:44;;;;;;;24.80;16.85;;;3.60;91.50;;;;;;6146769;23;20040;-94
2021/03/03 07:26:12;;;;;;;26.58;17.48;;;3.60;91.50;;;;;;6216946;23;20021;-96
2021/03/03 07:28:44;;;;;;;26.73;17.02;;;3.60;91.60;;;;;;6217549;23;20047;-94
2021/03/03 07:31:47;;;;;;;34.22;20.50;;;3.70;91.40;;;;;;6217113;23;20021;-94
2021/03/03 07:34:48;;;;;;;29.38;17.83;;;3.70;91.70;;;;;;6216743;23;20012;-93
2021/03/03 07:39:56;;;;;;;33.35;20.95;;;3.70;91.60;;;;;;6203687;23;20032;-94
2021/03/03 07:42:51;;;;;;;29.98;20.30;;;3.80;91.70;;;;;;6214829;23;20016;-92
2021/03/03 07:52:50;;;;;;;37.65;20.63;;;3.90;91.70;;;;;;6224109;23;20052;-92
2021/03/03 07:55:57;;;;;;;;;;;;;;;;;;;;;
2021/03/03 07:59:06;;;;;;;28.50;18.65;;;3.90;91.70;;;;;;6097868;23;20110;-92
2021/03/03 08:01:50;;;;;;;40.92;22.73;;;3.90;91.60;;;;;;6098515;23;20025;-92
2021/03/03 08:04:44;;;;;;;32.33;20.30;;;3.90;91.70;;;;;;6099298;23;20022;-92
2021/03/03 08:19:55;;;;;;;46.05;27.33;;;4.10;91.60;;;;;;6190720;23;20037;-93
2021/03/03 08:23:09;;;;;;;35.28;21.48;;;4.20;91.70;;;;;;6219764;23;20070;-94
2021/03/03 08:29:44;;;;;;;41.47;23.77;;;4.30;91.60;;;;;;6209541;22;20032;-93
2021/03/03 08:32:22;;;;;;;52.28;29.88;;;4.40;91.60;;;;;;6215648;23;20345;-93
2021/03/03 08:48:38;;;;;;;50.47;29.88;;;4.80;91.70;;;;;;6219798;23;20020;-93
2021/03/03 08:52:00;;;;;;;55.63;30.77;;;4.80;91.70;;;;;;6219019;23;20449;-92
2021/03/03 08:54:47;;;;;;;53.40;30.83;;;5.00;91.90;;;;;;6220300;23;20032;-94
2021/03/03 08:57:44;;;;;;;49.85;29.08;;;5.10;91.80;;;;;;6228635;23;20013;-94
2021/03/03 09:00:11;;;;;;;56.08;33.13;;;5.20;92.00;;;;;;6206510;23;20027;-95
2021/03/03 09:03:53;;;;;;;46.42;29.60;;;5.30;92.00;;;;;;6221081;23;20017;-93
2021/03/03 09:08:08;;;;;;;48.67;29.98;;;5.40;92.00;;;;;;6079569;23;20030;-95
2021/03/03 09:10:43;;;;;;;55.50;30.17;;;5.50;91.90;;;;;;6098089;23;20495;-94
2021/03/03 09:13:41;;;;;;;51.33;31.77;;;5.70;91.80;;;;;;6098672;23;20066;-94
2021/03/03 09:16:13;;;;;;;53.97;31.63;;;5.70;92.00;;;;;;6099090;23;20499;-94
2021/03/03 09:19:11;;;;;;;50.47;30.85;;;5.80;92.00;;;;;;6098422;23;20097;-96
2021/03/03 09:24:43;;;;;;;51.88;33.65;;;6.00;92.10;;;;;;6186831;23;20076;-94
2021/03/03 09:28:15;;;;;;;55.70;33.25;;;6.10;92.20;;;;;;6189390;23;20024;-94
2021/03/03 09:30:48;;;;;;;52.80;32.85;;;6.20;92.20;;;;;;6200976;22;20483;-93
2021/03/03 09:33:41;;;;;;;56.55;33.83;;;6.30;92.00;;;;;;6218830;23;20028;-95
2021/03/03 09:36:44;;;;;;;51.90;32.85;;;6.40;92.10;;;;;;6219244;23;20095;-93
2021/03/03 09:42:10;;;;;;;52.92;32.72;;;6.50;92.00;;;;;;6213681;22;20025;-96
2021/03/03 09:45:12;;;;;;;49.60;32.28;;;6.70;92.10;;;;;;6219978;23;20012;-94
2021/03/03 09:47:46;;;;;;;48.92;32.42;;;6.70;92.00;;;;;;6219505;23;20047;-94
2021/03/03 10:22:23;;;;;;;45.50;31.35;;;7.60;91.60;;;;;;6181177;22;21353;31
2021/03/03 10:29:43;;;;;;;53.83;33.00;;;7.70;91.40;;;;;;6188977;23;20085;-93
2021/03/03 10:32:43;;;;;;;53.38;34.25;;;7.80;91.30;;;;;;6189595;23;20059;-94
2021/03/03 10:35:47;;;;;;;49.58;33.03;;;7.80;91.30;;;;;;6094431;23;20109;-95
2021/03/03 10:42:42;;;;;;;43.78;30.25;;;7.80;91.20;;;;;;6040725;23;20051;-94
2021/03/03 11:06:57;;;;;;;;;;;;;;;;;;;;;
2021/03/03 11:26:13;;;;;;;33.03;23.85;;;7.20;91.40;;;;;;6216513;23;20103;-96
2021/03/03 11:28:50;;;;;;;32.50;22.55;;;7.20;91.30;;;;;;6218826;23;20024;-95
2021/03/03 11:35:13;;;;;;;30.85;21.83;;;7.20;91.40;;;;;;6218434;23;20044;-93
2021/03/03 11:37:56;;;;;;;;;;;;;;;;;;;;;
2021/03/03 11:44:51;;;;;;;31.17;21.80;;;7.30;91.40;;;;;;6204340;23;20404;-94
2021/03/03 11:48:24;;;;;;;;;;;;;;;;;;;;;
2021/03/03 11:58:43;;;;;;;36.25;25.02;;;7.30;91.20;;;;;;6218720;23;20015;-93
2021/03/03 12:08:42;;;;;;;34.67;25.35;;;7.30;91.10;;;;;;6101319;23;20018;-92
2021/03/03 12:17:43;;;;;;;34.90;25.95;;;7.30;91.20;;;;;;6248971;23;20078;-92
2021/03/03 12:29:50;;;;;;;41.28;28.33;;;7.40;91.30;;;;;;6157183;23;20032;-92
2021/03/03 12:56:45;;;;;;;40.88;28.70;;;7.50;91.00;;;;;;6176909;22;20071;-95
2021/03/03 13:15:45;;;;;;;39.80;27.90;;;7.60;90.90;;;;;;6260753;23;20012;-91
2021/03/03 13:18:13;;;;;;;38.92;28.08;;;7.60;90.80;;;;;;6249638;23;20023;-93
2021/03/03 13:21:12;;;;;;;39.45;28.88;;;7.70;90.90;;;;;;6250274;23;20039;-92
2021/03/03 13:23:46;;;;;;;39.47;27.50;;;7.70;90.90;;;;;;6249911;23;20104;-93
2021/03/03 13:26:17;;;;;;;40.55;29.15;;;7.70;90.80;;;;;;6250338;23;20019;-94
2021/03/03 13:28:46;;;;;;;42.58;29.55;;;7.70;90.80;;;;;;6249930;23;20012;-93
2021/03/03 13:31:45;;;;;;;41.20;28.92;;;7.70;90.70;;;;;;6197910;23;20415;-92
2021/03/03 13:37:14;;;;;;;41.85;28.50;;;7.70;90.70;;;;;;6199332;23;20031;-93
2021/03/03 13:43:46;;;;;;;41.78;29.70;;;7.70;90.50;;;;;;6152432;23;20027;-94
2021/03/03 13:50:57;;;;;;;;;;;;;;;;;;;;;
2021/03/03 13:56:25;;;;;;;44.63;28.77;;;7.70;90.40;;;;;;6189142;22;20071;31
2021/03/03 15:01:13;;;;;;;44.00;30.80;;;7.60;90.70;;;;;;6227872;22;20025;-92
2021/03/03 15:04:11;;;;;;;44.80;31.75;;;7.60;90.80;;;;;;6217156;23;20017;-92
2021/03/03 15:07:08;;;;;;;47.00;32.78;;;7.60;90.80;;;;;;6218135;23;20083;-95
2021/03/03 15:12:54;;;;;;;48.10;31.48;;;7.60;90.30;;;;;;6248923;23;20058;-93
2021/03/03 15:22:14;;;;;;;51.83;33.88;;;7.50;90.30;;;;;;6226387;23;20024;-92
2021/03/03 15:29:11;;;;;;;55.20;36.33;;;7.40;90.40;;;;;;6235679;23;20107;-92
2021/03/03 15:40:57;;;;;;;59.08;37.75;;;7.30;90.70;;;;;;6227439;23;20031;-94
2021/03/03 15:50:51;;;;;;;53.40;34.10;;;7.30;90.90;;;;;;6097561;23;20070;-93
2021/03/03 15:53:41;;;;;;;57.90;35.40;;;7.40;90.90;;;;;;5927365;24;20176;-94
2021/03/03 16:02:48;;;;;;;60.13;36.45;;;7.40;90.90;;;;;;6207073;23;20352;-95
2021/03/03 16:09:12;;;;;;;56.92;33.65;;;7.40;91.30;;;;;;6178791;23;20115;-92
2021/03/03 16:18:40;;;;;;;64.35;36.88;;;7.40;91.20;;;;;;6240120;23;20052;-95
2021/03/03 16:21:48;;;;;;;57.00;33.55;;;7.40;91.50;;;;;;6249766;23;20070;-93
2021/03/03 16:25:13;;;;;;;54.63;33.00;;;7.40;91.20;;;;;;6168904;23;20014;-92
2021/03/03 16:27:49;;;;;;;54.55;32.95;;;7.40;91.20;;;;;;6163287;23;20019;-94
2021/03/03 16:32:46;;;;;;;56.47;34.03;;;7.40;91.00;;;;;;6249545;23;20022;-94
2021/03/03 16:39:13;;;;;;;58.30;34.60;;;7.40;90.90;;;;;;6219956;23;20024;-91
2021/03/03 17:06:58;;;;;;;58.65;32.53;;;7.50;91.30;;;;;;6104877;23;20025;31
2021/03/03 17:11:12;;;;;;;57.63;32.72;;;7.40;91.20;;;;;;6158602;23;20080;-93
2021/03/03 17:13:49;;;;;;;59.65;33.13;;;7.30;91.20;;;;;;6158980;23;20380;-91
2021/03/03 17:16:46;;;;;;;56.00;32.95;;;7.30;91.40;;;;;;6158244;23;20021;-91
2021/03/03 17:27:42;;;;;;;56.40;33.38;;;7.30;91.40;;;;;;6160956;23;20453;-92
2021/03/03 17:30:44;;;;;;;58.05;33.80;;;7.30;91.60;;;;;;6171124;23;20029;-93
2021/03/03 17:33:10;;;;;;;60.55;33.10;;;7.30;91.60;;;;;;6219071;23;20013;-91
2021/03/03 17:44:14;;;;;;;60.13;33.08;;;7.20;91.30;;;;;;6136418;23;20044;-92
2021/03/03 17:47:20;;;;;;;;;;;;;;;;;;;;;
2021/03/03 17:59:10;;;;;;;59.03;33.53;;;7.00;91.50;;;;;;6204819;23;20029;-94
2021/03/03 18:14:08;;;;;;;53.70;31.35;;;7.00;91.50;;;;;;6196049;23;20039;-90
2021/03/03 18:29:49;;;;;;;52.28;29.33;;;6.80;91.50;;;;;;6223345;22;20023;-93
2021/03/03 18:32:53;;;;;;;52.67;28.65;;;6.80;91.30;;;;;;6188007;23;20067;-95
2021/03/03 18:43:05;;;;;;;62.55;32.13;;;6.60;91.30;;;;;;6177676;23;20343;-92
2021/03/03 18:45:57;;;;;;;60.10;31.10;;;6.60;91.50;;;;;;6068112;23;20022;-93
2021/03/03 18:56:10;;;;;;;55.28;30.60;;;6.60;91.30;;;;;;6180680;22;20090;-95
2021/03/03 19:11:42;;;;;;;60.50;31.95;;;6.40;91.30;;;;;;6222605;22;20352;-92
2021/03/03 19:18:58;;;;;;;;;;;;;;;;;;;;;
2021/03/03 19:30:13;;;;;;;56.08;29.00;;;6.30;91.30;;;;;;6217081;23;20579;-94
2021/03/03 19:32:44;;;;;;;61.00;31.42;;;6.30;91.60;;;;;;6155434;23;20060;-94
2021/03/03 19:35:13;;;;;;;53.80;28.45;;;6.30;91.60;;;;;;6155279;23;20017;-95
2021/03/03 19:38:09;;;;;;;56.90;29.50;;;6.30;91.80;;;;;;6154377;23;20525;-93
2021/03/03 20:01:51;;;;;;;56.80;29.20;;;5.90;91.50;;;;;;6199577;23;20020;-94
2021/03/03 21:04:46;;;;;;;66.43;30.95;;;5.90;91.80;;;;;;6238336;23;20036;-92
2021/03/03 21:10:52;;;;;;;57.90;30.02;;;5.90;92.00;;;;;;6215384;23;20017;-92
2021/03/03 21:14:43;;;;;;;;;;;;;;;;;;;;;
2021/03/03 21:21:13;;;;;;;63.35;28.80;;;5.80;91.60;;;;;;6247265;23;20341;-92
2021/03/03 21:23:51;;;;;;;60.58;29.92;;;5.80;91.90;;;;;;6248050;23;20012;-92
2021/03/03 21:26:47;;;;;;;59.70;28.60;;;5.80;91.80;;;;;;6248222;23;20031;-94
2021/03/03 21:29:46;;;;;;;57.15;26.92;;;5.70;92.10;;;;;;6247683;23;20048;-91
2021/03/03 21:36:09;;;;;;;54.53;27.60;;;5.70;92.10;;;;;;6176885;23;20389;-92
2021/03/03 21:38:45;;;;;;;52.20;26.33;;;5.70;92.10;;;;;;6248212;23;20020;-93
2021/03/03 21:41:21;;;;;;;54.47;26.88;;;5.70;92.10;;;;;;6248686;23;20027;-92
2021/03/03 21:43:46;;;;;;;53.15;26.60;;;5.70;92.20;;;;;;6247632;23;20100;-92
2021/03/03 21:46:43;;;;;;;53.50;25.63;;;5.70;92.00;;;;;;6248510;23;20037;-92
2021/03/03 21:49:42;;;;;;;59.03;27.15;;;5.70;92.20;;;;;;6248381;23;20091;-93
2021/03/03 21:52:11;;;;;;;51.88;25.65;;;5.60;92.20;;;;;;6247549;23;20016;-95
2021/03/03 21:54:49;;;;;;;51.35;25.95;;;5.70;92.10;;;;;;6248289;23;20094;-91
2021/03/03 21:57:22;;;;;;;51.42;24.55;;;5.70;92.20;;;;;;6248165;23;20384;-92
2021/03/03 22:00:37;;;;;;;52.35;26.85;;;5.70;92.10;;;;;;6245353;23;20097;-94
2021/03/03 22:03:15;;;;;;;43.95;23.45;;;5.70;92.30;;;;;;6248534;23;20024;-93
2021/03/03 22:05:44;;;;;;;52.25;25.13;;;5.70;92.20;;;;;;6247587;23;20031;-93
2021/03/03 22:12:14;;;;;;;48.85;24.42;;;5.70;92.30;;;;;;6247478;23;20051;-95
2021/03/03 22:14:48;;;;;;;49.28;25.00;;;5.60;92.10;;;;;;6240515;23;20008;-95
2021/03/03 22:17:44;;;;;;;45.88;23.02;;;5.70;92.00;;;;;;6248768;23;20016;-93
2021/03/03 22:20:38;;;;;;;45.70;24.23;;;5.60;91.70;;;;;;6247892;23;20016;-92
2021/03/03 22:23:12;;;;;;;48.08;24.33;;;5.60;91.70;;;;;;6248048;23;20448;-94
2021/03/03 22:25:47;;;;;;;42.85;23.63;;;5.50;91.80;;;;;;6247745;23;20009;-92
2021/03/03 22:28:14;;;;;;;48.42;25.17;;;5.50;91.70;;;;;;6244255;23;20022;-92
2021/03/03 22:31:06;;;;;;;49.50;24.77;;;5.50;91.90;;;;;;6245266;22;20016;-93
2021/03/03 22:34:26;;;;;;;49.50;25.38;;;5.50;92.00;;;;;;6236285;22;20051;-93
2021/03/03 22:40:40;;;;;;;44.05;24.08;;;5.50;92.00;;;;;;5832237;23;8962302;31
2021/03/03 22:44:33;;;;;;;43.67;23.55;;;5.50;92.00;;;;;;6127217;23;20025;-91
2021/03/03 22:47:42;;;;;;;45.38;24.33;;;5.50;91.80;;;;;;6156200;23;20021;-91
2021/03/03 22:50:45;;;;;;;49.83;24.02;;;5.40;91.90;;;;;;6157101;23;20349;-92
2021/03/03 22:53:45;;;;;;;46.88;25.00;;;5.40;92.10;;;;;;6157236;23;20017;-94
2021/03/03 22:56:16;;;;;;;47.75;23.90;;;5.40;92.20;;;;;;6157320;23;20337;-92
2021/03/03 22:58:42;;;;;;;48.38;25.42;;;5.40;92.20;;;;;;6157264;23;20018;-91
2021/03/03 23:01:14;;;;;;;52.78;25.67;;;5.50;92.50;;;;;;6210340;23;20028;-92
2021/03/03 23:03:40;;;;;;;48.03;25.60;;;5.40;92.30;;;;;;6247249;23;20023;-92
2021/03/03 23:06:10;;;;;;;45.40;23.63;;;5.40;92.10;;;;;;6246960;23;20020;-92
2021/03/03 23:08:47;;;;;;;46.13;24.52;;;5.50;92.20;;;;;;6246757;23;20023;-91
2021/03/03 23:11:45;;;;;;;50.22;24.98;;;5.40;92.10;;;;;;6220598;23;20043;-92
2021/03/03 23:14:41;;;;;;;50.13;24.20;;;5.40;92.10;;;;;;6218178;23;20044;-92
2021/03/03 23:17:46;;;;;;;42.47;23.08;;;5.30;92.10;;;;;;6250525;23;20424;-93
2021/03/03 23:20:14;;;;;;;46.85;23.17;;;5.30;92.10;;;;;;6247402;23;20028;-92
2021/03/03 23:22:44;;;;;;;43.83;22.85;;;5.20;92.00;;;;;;6246112;23;20020;-94
2021/03/03 23:25:17;;;;;;;52.40;27.13;;;5.30;92.10;;;;;;6246658;23;20012;-92
2021/03/03 23:27:46;;;;;;;51.30;25.77;;;5.30;92.20;;;;;;6246371;23;20047;-91
2021/03/03 23:30:47;;;;;;;49.75;25.10;;;5.30;92.30;;;;;;6246135;23;20388;-92
2021/03/03 23:33:14;;;;;;;43.70;23.48;;;5.30;92.40;;;;;;6247384;23;20016;-91
2021/03/03 23:35:48;;;;;;;43.70;23.20;;;5.30;92.40;;;;;;6246172;23;20012;-91
2021/03/03 23:38:20;;;;;;;46.88;22.35;;;5.30;92.40;;;;;;6247535;23;20016;-93
2021/03/03 23:40:50;;;;;;;45.10;23.75;;;5.20;92.30;;;;;;6246901;23;20012;-91
2021/03/03 23:44:10;;;;;;;44.42;22.42;;;5.20;92.30;;;;;;6246885;23;20078;-92
2021/03/03 23:47:08;;;;;;;40.30;20.92;;;5.20;92.30;;;;;;6247657;23;20027;-92
2021/03/03 23:49:46;;;;;;;37.50;20.02;;;5.20;92.10;;;;;;6095606;23;20014;-92
2021/03/03 23:52:46;;;;;;;46.08;23.20;;;5.10;91.80;;;;;;6247065;23;20456;-91
2021/03/03 23:55:17;;;;;;;38.83;20.48;;;5.10;92.10;;;;;;6246421;23;20387;-93
2021/03/03 23:57:43;;;;;;;41.50;21.10;;;5.10;92.00;;;;;;6246494;23;20016;-91
